createdAt,value
2019-03-24T00:01:08.652Z,94.60
2019-03-24T00:03:38.128Z,101.00
2019-03-24T00:06:07.620Z,107.07
2019-03-24T00:08:37.099Z,101.63
2019-03-24T00:11:06.671Z,104.30
2019-03-24T00:13:36.156Z,110.33
2019-03-24T00:16:05.970Z,105.37
2019-03-24T00:18:35.470Z,99.10
2019-03-24T00:21:05.223Z,99.77
2019-03-24T00:23:34.726Z,94.63
2019-03-24T00:26:04.399Z,102.60
2019-03-24T00:28:34.133Z,100.73
2019-03-24T00:31:03.675Z,104.43
2019-03-24T00:33:33.145Z,102.57
2019-03-24T00:36:02.643Z,95.40
2019-03-24T00:38:32.144Z,98.23
2019-03-24T00:41:01.654Z,100.40
2019-03-24T00:43:31.127Z,106.47
2019-03-24T00:46:00.671Z,104.63
2019-03-24T00:48:30.149Z,108.63
2019-03-24T00:50:59.613Z,102.17
2019-03-24T00:53:29.139Z,103.80
2019-03-24T00:55:58.591Z,105.10
2019-03-24T00:58:28.086Z,104.23
2019-03-24T01:00:57.662Z,104.70
2019-03-24T01:03:27.158Z,111.07
2019-03-24T01:05:56.685Z,100.83
2019-03-24T01:08:26.418Z,103.23
2019-03-24T01:10:56.033Z,105.20
2019-03-24T01:13:44.880Z,100.27
2019-03-24T01:16:14.339Z,102.27
2019-03-24T01:18:43.836Z,109.40
2019-03-24T01:21:13.846Z,114.03
2019-03-24T01:23:43.339Z,111.63
2019-03-24T01:26:12.797Z,118.93
2019-03-24T01:28:42.316Z,127.53
2019-03-24T01:31:11.833Z,129.27
2019-03-24T01:33:41.313Z,117.83
2019-03-24T01:36:10.835Z,113.23
2019-03-24T01:38:40.394Z,106.27
2019-03-24T01:41:09.851Z,102.30
2019-03-24T01:43:39.366Z,114.37
2019-03-24T01:46:28.167Z,112.00
2019-03-24T01:48:57.831Z,116.20
2019-03-24T01:51:27.321Z,121.20
2019-03-24T01:53:56.802Z,106.43
2019-03-24T01:56:26.655Z,109.77
2019-03-24T01:58:56.126Z,109.73
2019-03-24T02:01:25.623Z,108.57
2019-03-24T02:03:55.132Z,108.70
2019-03-24T02:06:24.587Z,112.67
2019-03-24T02:08:54.088Z,112.47
2019-03-24T02:11:23.766Z,105.77
2019-03-24T02:13:53.252Z,109.67
2019-03-24T02:16:22.809Z,103.03
2019-03-24T02:18:52.302Z,107.40
2019-03-24T02:21:21.972Z,103.73
2019-03-24T02:23:51.433Z,115.93
2019-03-24T02:26:20.916Z,102.53
2019-03-24T02:28:50.387Z,108.90
2019-03-24T02:31:19.874Z,105.50
2019-03-24T02:33:49.423Z,108.33
2019-03-24T02:36:18.889Z,98.80
2019-03-24T02:38:48.384Z,109.07
2019-03-24T02:41:17.908Z,106.07
2019-03-24T02:43:47.372Z,101.53
2019-03-24T02:46:24.323Z,106.20
2019-03-24T02:48:53.941Z,101.10
2019-03-24T02:51:23.433Z,98.20
2019-03-24T02:53:52.933Z,107.97
2019-03-24T02:56:22.419Z,111.10
2019-03-24T02:58:51.888Z,109.10
2019-03-24T03:01:21.359Z,106.03
2019-03-24T03:03:50.848Z,107.47
2019-03-24T03:06:20.410Z,111.30
2019-03-24T03:08:49.875Z,115.20
2019-03-24T03:11:19.379Z,108.70
2019-03-24T03:14:08.248Z,107.70
2019-03-24T03:16:39.009Z,106.47
2019-03-24T03:19:09.096Z,102.23
2019-03-24T03:21:59.146Z,94.73
2019-03-24T03:24:28.647Z,98.37
2019-03-24T03:26:58.000Z,99.63
2019-03-24T03:29:27.527Z,99.63
2019-03-24T03:31:57.007Z,102.23
2019-03-24T03:34:26.506Z,95.10
2019-03-24T03:36:55.973Z,108.93
2019-03-24T03:39:25.436Z,106.80
2019-03-24T03:41:54.909Z,104.47
2019-03-24T03:44:24.426Z,106.67
2019-03-24T03:46:53.905Z,111.27
2019-03-24T03:49:23.356Z,103.87
2019-03-24T03:51:52.859Z,107.37
2019-03-24T03:54:22.332Z,105.00
2019-03-24T03:56:51.889Z,107.07
2019-03-24T03:59:21.414Z,99.77
2019-03-24T04:01:50.876Z,91.93
2019-03-24T04:04:20.368Z,93.13
2019-03-24T04:06:49.880Z,103.57
2019-03-24T04:09:19.356Z,92.23
2019-03-24T04:11:48.806Z,93.20
2019-03-24T04:14:18.356Z,90.33
2019-03-24T04:16:47.844Z,100.57
2019-03-24T04:19:17.327Z,94.13
2019-03-24T04:21:46.844Z,103.27
2019-03-24T04:24:16.301Z,103.70
2019-03-24T04:26:47.403Z,105.57
2019-03-24T04:29:17.049Z,95.27
2019-03-24T04:31:46.552Z,102.70
2019-03-24T04:34:16.040Z,98.03
2019-03-24T04:36:45.766Z,92.30
2019-03-24T04:39:15.235Z,103.20
2019-03-24T04:41:44.768Z,97.00
2019-03-24T04:44:14.282Z,98.37
2019-03-24T04:47:03.054Z,98.87
2019-03-24T04:49:32.532Z,91.50
2019-03-24T04:52:02.009Z,88.13
2019-03-24T04:54:31.515Z,91.90
2019-03-24T04:57:01.178Z,94.07
2019-03-24T04:59:30.673Z,91.40
2019-03-24T05:02:00.366Z,94.70
2019-03-24T05:04:29.881Z,98.00
2019-03-24T05:06:59.775Z,101.57
2019-03-24T05:09:29.944Z,96.60
2019-03-24T05:11:59.481Z,95.43
2019-03-24T05:14:28.968Z,95.20
2019-03-24T05:16:58.422Z,95.37
2019-03-24T05:19:27.943Z,102.80
2019-03-24T05:21:57.441Z,96.30
2019-03-24T05:24:27.800Z,89.40
2019-03-24T05:26:57.262Z,82.37
2019-03-24T05:29:29.667Z,86.70
2019-03-24T05:31:59.156Z,89.40
2019-03-24T05:34:47.989Z,93.90
2019-03-24T05:37:17.470Z,87.83
2019-03-24T05:39:46.929Z,89.23
2019-03-24T05:42:16.418Z,96.70
2019-03-24T05:44:45.922Z,106.20
2019-03-24T05:47:15.388Z,96.83
2019-03-24T05:49:44.893Z,99.17
2019-03-24T05:52:14.448Z,99.03
2019-03-24T05:54:43.923Z,96.80
2019-03-24T05:57:13.397Z,93.33
2019-03-24T05:59:42.890Z,91.90
2019-03-24T06:02:12.623Z,99.77
2019-03-24T06:04:42.193Z,95.97
2019-03-24T06:07:11.652Z,92.53
2019-03-24T06:09:41.162Z,82.27
2019-03-24T06:12:10.682Z,89.87
2019-03-24T06:14:59.484Z,75.40
2019-03-24T06:17:28.989Z,77.87
2019-03-24T06:19:58.439Z,82.20
2019-03-24T06:22:27.940Z,80.47
2019-03-24T06:24:57.961Z,80.63
2019-03-24T06:27:27.459Z,70.53
2019-03-24T06:29:56.939Z,75.13
2019-03-24T06:32:26.501Z,80.87
2019-03-24T06:34:55.996Z,83.60
2019-03-24T06:37:25.542Z,83.13
2019-03-24T06:39:55.013Z,76.97
2019-03-24T06:42:24.696Z,72.80
2019-03-24T06:44:54.150Z,76.67
2019-03-24T06:47:23.826Z,84.27
2019-03-24T06:50:12.785Z,79.53
2019-03-24T06:52:42.290Z,74.80
2019-03-24T06:55:12.290Z,75.17
2019-03-24T06:57:41.795Z,71.87
2019-03-24T07:00:12.879Z,73.07
2019-03-24T07:02:42.546Z,67.47
2019-03-24T07:05:31.345Z,68.77
2019-03-24T07:08:00.840Z,69.70
2019-03-24T07:10:30.295Z,62.57
2019-03-24T07:12:59.813Z,63.97
2019-03-24T07:15:29.300Z,65.60
2019-03-24T07:18:18.088Z,66.87
2019-03-24T07:20:47.565Z,68.93
2019-03-24T07:23:17.099Z,66.47
2019-03-24T07:25:46.696Z,59.03
2019-03-24T07:28:16.203Z,59.67
2019-03-24T07:30:45.683Z,62.25
2019-03-24T07:33:15.195Z,66.17
2019-03-24T07:35:46.170Z,58.58
2019-03-24T07:38:15.670Z,64.60
2019-03-24T07:40:45.193Z,59.63
2019-03-24T07:43:14.663Z,66.30
2019-03-24T07:45:44.169Z,61.18
2019-03-24T07:48:19.108Z,66.10
2019-03-24T07:51:04.189Z,66.20
2019-03-24T07:53:33.800Z,70.72
2019-03-24T07:56:03.291Z,64.55
2019-03-24T07:58:32.804Z,62.23
2019-03-24T08:01:02.312Z,64.32
2019-03-24T08:03:31.788Z,66.67
2019-03-24T08:06:01.280Z,66.65
2019-03-24T08:08:30.809Z,63.55
2019-03-24T08:11:00.315Z,63.50
2019-03-24T08:13:29.799Z,58.38
2019-03-24T08:15:59.340Z,55.67
2019-03-24T08:18:30.101Z,53.75
2019-03-24T08:20:59.894Z,55.08
2019-03-24T08:23:48.711Z,48.17
2019-03-24T08:26:20.089Z,51.60
2019-03-24T08:28:49.550Z,49.80
2019-03-24T08:31:19.069Z,47.88
2019-03-24T08:33:48.593Z,52.43
2019-03-24T08:36:18.110Z,53.08
2019-03-24T08:38:47.706Z,52.20
2019-03-24T08:41:17.342Z,49.60
2019-03-24T08:43:46.843Z,48.02
2019-03-24T08:46:16.350Z,47.43
2019-03-24T08:48:45.810Z,46.88
2019-03-24T08:51:15.310Z,49.00
2019-03-24T08:53:45.126Z,48.95
2019-03-24T08:56:14.620Z,46.00
2019-03-24T08:58:44.136Z,46.00
2019-03-24T09:01:13.704Z,44.10
2019-03-24T09:03:43.262Z,46.15
2019-03-24T09:06:12.788Z,43.58
2019-03-24T09:09:01.830Z,45.85
2019-03-24T09:11:31.709Z,43.50
2019-03-24T09:14:01.267Z,44.42
2019-03-24T09:16:30.820Z,45.60
2019-03-24T09:19:00.315Z,45.63
2019-03-24T09:21:29.809Z,42.40
2019-03-24T09:23:59.287Z,45.05
2019-03-24T09:26:28.952Z,46.42
2019-03-24T09:28:59.399Z,44.10
2019-03-24T09:31:29.015Z,43.63
2019-03-24T09:33:58.507Z,45.75
2019-03-24T09:36:28.035Z,43.65
2019-03-24T09:38:57.531Z,48.08
2019-03-24T09:41:27.100Z,45.73
2019-03-24T09:43:56.599Z,43.40
2019-03-24T09:46:26.131Z,42.03
2019-03-24T09:49:14.935Z,42.90
2019-03-24T09:51:44.421Z,46.48
2019-03-24T09:54:14.185Z,44.90
2019-03-24T09:56:43.680Z,45.80
2019-03-24T09:59:13.214Z,41.23
2019-03-24T10:01:42.683Z,47.45
2019-03-24T10:04:12.150Z,45.88
2019-03-24T10:06:41.693Z,46.42
2019-03-24T10:09:11.159Z,42.80
2019-03-24T10:11:40.704Z,47.35
2019-03-24T10:14:10.266Z,42.85
2019-03-24T10:16:39.772Z,38.50
2019-03-24T10:19:13.853Z,39.58
2019-03-24T10:21:40.553Z,43.30
2019-03-24T10:24:10.216Z,41.15
2019-03-24T10:26:59.202Z,40.73
2019-03-24T10:29:28.763Z,41.77
2019-03-24T10:31:58.280Z,41.28
2019-03-24T10:34:27.805Z,40.83
2019-03-24T10:36:57.295Z,37.78
2019-03-24T10:39:26.761Z,40.70
2019-03-24T10:41:56.325Z,40.50
2019-03-24T10:44:25.811Z,39.63
2019-03-24T10:46:55.312Z,40.40
2019-03-24T10:49:25.409Z,39.73
2019-03-24T10:51:54.988Z,42.08
2019-03-24T10:54:44.020Z,42.25
2019-03-24T10:57:13.667Z,40.50
2019-03-24T10:59:43.165Z,42.55
2019-03-24T11:02:12.670Z,40.05
2019-03-24T11:04:42.145Z,40.50
2019-03-24T11:07:11.618Z,41.90
2019-03-24T11:09:41.190Z,41.80
2019-03-24T11:12:10.656Z,40.35
2019-03-24T11:14:40.134Z,42.23
2019-03-24T11:17:09.650Z,41.45
2019-03-24T11:19:39.194Z,38.53
2019-03-24T11:22:08.700Z,41.10
2019-03-24T11:24:38.194Z,38.35
2019-03-24T11:27:07.794Z,38.08
2019-03-24T11:29:37.266Z,41.85
2019-03-24T11:32:06.965Z,40.63
2019-03-24T11:34:36.424Z,40.50
2019-03-24T11:37:11.734Z,41.88
2019-03-24T11:39:41.459Z,39.67
2019-03-24T11:42:10.968Z,46.25
2019-03-24T11:44:40.506Z,40.75
2019-03-24T11:47:09.991Z,40.50
2019-03-24T11:49:45.979Z,41.53
2019-03-24T11:52:10.729Z,38.45
2019-03-24T11:54:40.233Z,41.58
2019-03-24T11:57:29.072Z,39.92
2019-03-24T11:59:58.630Z,43.45
2019-03-24T12:02:28.121Z,42.60
2019-03-24T12:04:57.624Z,41.02
2019-03-24T12:07:27.121Z,40.58
2019-03-24T12:09:57.088Z,41.63
2019-03-24T12:12:26.615Z,42.88
2019-03-24T12:15:15.435Z,43.35
2019-03-24T12:17:44.912Z,42.38
2019-03-24T12:20:15.031Z,40.33
2019-03-24T12:22:44.556Z,40.03
2019-03-24T12:25:14.258Z,36.75
2019-03-24T12:27:43.777Z,40.00
2019-03-24T12:30:14.266Z,38.00
2019-03-24T12:33:03.035Z,38.28
2019-03-24T12:35:32.538Z,40.75
2019-03-24T12:38:08.056Z,41.23
2019-03-24T12:40:43.323Z,38.23
2019-03-24T12:43:19.531Z,37.53
2019-03-24T12:46:03.357Z,36.63
2019-03-24T12:48:32.830Z,41.83
2019-03-24T12:51:09.968Z,34.03
2019-03-24T12:53:39.471Z,37.95
2019-03-24T12:56:28.307Z,35.80
2019-03-24T12:58:57.782Z,37.48
2019-03-24T13:01:27.256Z,35.13
2019-03-24T13:03:56.785Z,38.73
2019-03-24T13:06:26.351Z,38.58
2019-03-24T13:08:55.852Z,36.83
2019-03-24T13:11:25.404Z,36.17
2019-03-24T13:13:54.877Z,37.58
2019-03-24T13:16:24.350Z,38.73
2019-03-24T13:18:54.014Z,41.65
2019-03-24T13:21:23.489Z,40.10
2019-03-24T13:23:52.973Z,40.95
2019-03-24T13:26:22.489Z,38.60
2019-03-24T13:28:51.988Z,38.17
2019-03-24T13:31:21.479Z,39.90
2019-03-24T13:33:50.958Z,41.77
2019-03-24T13:36:20.528Z,40.80
2019-03-24T13:38:50.065Z,38.70
2019-03-24T13:41:19.586Z,39.65
2019-03-24T13:43:49.202Z,38.20
2019-03-24T13:46:18.702Z,38.25
2019-03-24T13:48:48.238Z,38.17
2019-03-24T13:51:17.727Z,37.45
2019-03-24T13:53:47.259Z,41.20
2019-03-24T13:56:17.010Z,39.15
2019-03-24T13:58:46.502Z,40.50
2019-03-24T14:01:16.519Z,41.53
2019-03-24T14:03:46.035Z,42.03
2019-03-24T14:06:15.490Z,40.10
2019-03-24T14:08:45.035Z,37.03
2019-03-24T14:11:14.568Z,38.90
2019-03-24T14:13:44.064Z,37.15
2019-03-24T14:16:13.633Z,37.53
2019-03-24T14:18:43.162Z,37.28
2019-03-24T14:21:12.666Z,36.13
2019-03-24T14:23:42.153Z,35.35
2019-03-24T14:26:12.102Z,36.17
2019-03-24T14:28:41.574Z,40.38
2019-03-24T14:31:11.587Z,38.00
2019-03-24T14:33:41.081Z,40.28
2019-03-24T14:36:29.877Z,39.42
2019-03-24T14:38:59.456Z,40.43
2019-03-24T14:41:29.065Z,39.60
2019-03-24T14:43:58.624Z,37.23
2019-03-24T14:46:28.176Z,37.53
2019-03-24T14:48:57.616Z,38.02
2019-03-24T14:51:46.417Z,38.42
2019-03-24T14:54:15.921Z,35.52
2019-03-24T14:56:45.588Z,37.13
2019-03-24T14:59:15.090Z,36.30
2019-03-24T15:01:44.598Z,37.30
2019-03-24T15:04:14.069Z,31.97
2019-03-24T15:06:43.574Z,33.92
2019-03-24T15:09:13.064Z,33.50
2019-03-24T15:11:42.579Z,32.75
2019-03-24T15:14:12.084Z,31.93
2019-03-24T15:16:41.617Z,33.40
2019-03-24T15:19:11.117Z,30.75
2019-03-24T15:21:40.724Z,32.88
2019-03-24T15:24:10.183Z,33.20
2019-03-24T15:26:39.731Z,31.70
2019-03-24T15:29:09.427Z,30.88
2019-03-24T15:31:39.003Z,29.57
2019-03-24T15:34:08.488Z,31.80
2019-03-24T15:36:37.966Z,34.53
2019-03-24T15:39:09.546Z,32.75
2019-03-24T15:41:39.204Z,28.17
2019-03-24T15:44:28.049Z,32.85
2019-03-24T15:46:57.506Z,31.35
2019-03-24T15:49:26.983Z,30.32
2019-03-24T15:51:56.719Z,28.80
2019-03-24T15:54:26.226Z,28.02
2019-03-24T15:56:55.728Z,33.00
2019-03-24T15:59:25.219Z,30.10
2019-03-24T16:01:54.722Z,30.37
2019-03-24T16:04:24.224Z,30.95
2019-03-24T16:06:53.831Z,32.03
2019-03-24T16:09:23.305Z,32.15
2019-03-24T16:11:52.817Z,32.15
2019-03-24T16:14:22.362Z,32.95
2019-03-24T16:16:51.832Z,30.05
2019-03-24T16:19:40.668Z,33.85
2019-03-24T16:22:10.172Z,33.25
2019-03-24T16:24:39.632Z,31.65
2019-03-24T16:27:09.186Z,29.98
2019-03-24T16:29:38.745Z,29.15
2019-03-24T16:32:08.485Z,30.17
2019-03-24T16:34:38.048Z,30.35
2019-03-24T16:37:07.533Z,27.82
2019-03-24T16:39:38.502Z,30.62
2019-03-24T16:42:08.003Z,29.30
2019-03-24T16:44:37.517Z,29.65
2019-03-24T16:47:26.766Z,29.27
2019-03-24T16:49:56.276Z,29.65
2019-03-24T16:52:25.750Z,28.75
2019-03-24T16:54:55.257Z,27.07
2019-03-24T16:57:25.424Z,26.45
2019-03-24T16:59:54.925Z,22.42
2019-03-24T17:02:24.495Z,22.63
2019-03-24T17:05:13.436Z,19.40
2019-03-24T17:07:42.961Z,19.70
2019-03-24T17:10:12.874Z,19.55
2019-03-24T17:12:42.378Z,18.45
2019-03-24T17:15:12.525Z,18.87
2019-03-24T17:17:42.030Z,20.30
2019-03-24T17:20:30.867Z,18.70
2019-03-24T17:23:00.368Z,18.30
2019-03-24T17:25:29.873Z,20.25
2019-03-24T17:27:59.383Z,18.60
2019-03-24T17:30:29.019Z,17.32
2019-03-24T17:32:58.968Z,17.57
2019-03-24T17:35:28.687Z,20.77
2019-03-24T17:37:58.176Z,17.32
2019-03-24T17:40:27.668Z,19.30
2019-03-24T17:42:57.256Z,18.30
2019-03-24T17:45:26.821Z,16.55
2019-03-24T17:47:56.359Z,18.70
2019-03-24T17:50:25.864Z,16.90
2019-03-24T17:52:55.340Z,15.55
2019-03-24T17:55:27.936Z,15.05
2019-03-24T17:57:56.279Z,17.23
2019-03-24T18:00:30.315Z,15.63
2019-03-24T18:02:59.788Z,17.15
2019-03-24T18:05:29.462Z,16.82
2019-03-24T18:08:01.745Z,14.58
2019-03-24T18:10:31.329Z,15.90
2019-03-24T18:13:00.816Z,15.88
2019-03-24T18:15:30.306Z,14.55
2019-03-24T18:17:59.807Z,16.23
2019-03-24T18:20:33.630Z,16.73
2019-03-24T18:23:03.444Z,14.20
2019-03-24T18:25:33.007Z,13.10
2019-03-24T18:28:02.898Z,18.00
2019-03-24T18:30:32.569Z,15.58
2019-03-24T18:33:02.074Z,15.28
2019-03-24T18:35:31.668Z,14.73
2019-03-24T18:38:01.228Z,15.43
2019-03-24T18:40:30.696Z,14.35
2019-03-24T18:43:00.253Z,14.07
2019-03-24T18:45:29.733Z,13.60
2019-03-24T18:47:59.230Z,15.23
2019-03-24T18:50:28.789Z,15.55
2019-03-24T18:52:58.247Z,14.35
2019-03-24T18:55:27.726Z,15.63
2019-03-24T18:57:57.352Z,15.65
2019-03-24T19:00:26.836Z,14.50
2019-03-24T19:02:56.342Z,13.37
2019-03-24T19:05:25.873Z,14.47
2019-03-24T19:07:55.348Z,12.97
2019-03-24T19:10:24.822Z,17.70
2019-03-24T19:12:54.322Z,16.52
2019-03-24T19:15:23.992Z,15.20
2019-03-24T19:17:53.463Z,20.60
2019-03-24T19:20:23.066Z,22.07
2019-03-24T19:22:52.573Z,21.83
2019-03-24T19:25:22.076Z,18.37
2019-03-24T19:27:51.594Z,15.63
2019-03-24T19:30:25.629Z,12.87
2019-03-24T19:32:55.252Z,11.10
2019-03-24T19:35:24.844Z,14.17
2019-03-24T19:37:56.948Z,12.80
2019-03-24T19:40:30.199Z,13.10
2019-03-24T19:43:00.059Z,16.47
2019-03-24T19:45:29.726Z,14.73
2019-03-24T19:47:59.233Z,15.23
2019-03-24T19:50:28.713Z,15.50
2019-03-24T19:52:58.179Z,15.60
2019-03-24T19:55:27.853Z,13.33
2019-03-24T19:57:57.353Z,14.97
2019-03-24T20:00:46.167Z,13.13
2019-03-24T20:03:15.661Z,15.70
2019-03-24T20:05:45.167Z,16.27
2019-03-24T20:08:14.626Z,14.07
2019-03-24T20:10:44.093Z,17.37
2019-03-24T20:13:13.572Z,14.40
2019-03-24T20:15:43.514Z,17.80
2019-03-24T20:18:13.015Z,16.07
2019-03-24T20:20:42.502Z,17.10
2019-03-24T20:23:11.974Z,17.97
2019-03-24T20:25:41.466Z,17.40
2019-03-24T20:28:10.972Z,19.80
2019-03-24T20:30:40.538Z,16.17
2019-03-24T20:33:10.099Z,16.73
2019-03-24T20:35:58.896Z,19.00
2019-03-24T20:38:28.732Z,18.23
2019-03-24T20:40:58.238Z,17.60
2019-03-24T20:43:27.744Z,16.77
2019-03-24T20:45:57.266Z,19.67
2019-03-24T20:48:26.853Z,15.27
2019-03-24T20:50:56.385Z,16.67
2019-03-24T20:53:26.810Z,14.93
2019-03-24T20:55:56.292Z,19.33
2019-03-24T20:58:25.835Z,19.40
2019-03-24T21:00:55.328Z,21.17
2019-03-24T21:03:24.781Z,18.13
2019-03-24T21:05:54.291Z,20.30
2019-03-24T21:08:23.743Z,18.47
2019-03-24T21:10:53.243Z,18.53
2019-03-24T21:13:22.726Z,16.97
2019-03-24T21:15:52.207Z,19.63
2019-03-24T21:18:21.859Z,17.43
2019-03-24T21:20:51.482Z,22.07
2019-03-24T21:23:29.123Z,20.20
2019-03-24T21:25:53.659Z,22.40
2019-03-24T21:28:23.176Z,23.60
2019-03-24T21:30:52.643Z,27.50
2019-03-24T21:33:22.120Z,26.27
2019-03-24T21:35:51.774Z,21.93
2019-03-24T21:38:21.289Z,22.33
2019-03-24T21:40:50.934Z,23.47
2019-03-24T21:43:20.446Z,20.00
2019-03-24T21:45:49.926Z,23.10
2019-03-24T21:48:19.563Z,23.03
2019-03-24T21:50:49.072Z,20.70
2019-03-24T21:53:18.562Z,21.33
2019-03-24T21:55:48.294Z,20.90
2019-03-24T21:58:17.831Z,20.17
2019-03-24T22:00:47.401Z,21.20
2019-03-24T22:03:16.851Z,22.40
2019-03-24T22:05:46.363Z,26.50
2019-03-24T22:08:35.164Z,22.17
2019-03-24T22:11:04.853Z,26.43
2019-03-24T22:13:34.333Z,22.30
2019-03-24T22:16:03.856Z,22.57
2019-03-24T22:18:33.356Z,25.50
2019-03-24T22:21:02.828Z,24.87
2019-03-24T22:23:32.284Z,23.23
2019-03-24T22:26:01.795Z,24.87
2019-03-24T22:28:31.252Z,23.13
2019-03-24T22:31:00.768Z,26.57
2019-03-24T22:33:30.286Z,22.30
2019-03-24T22:35:59.776Z,24.83
2019-03-24T22:38:29.246Z,25.53
2019-03-24T22:40:59.629Z,25.47
2019-03-24T22:43:29.117Z,25.67
2019-03-24T22:45:58.617Z,23.20
2019-03-24T22:48:47.436Z,25.47
2019-03-24T22:51:16.900Z,22.63
2019-03-24T22:53:46.367Z,25.67
2019-03-24T22:56:15.969Z,24.70
2019-03-24T22:58:45.486Z,24.50
2019-03-24T23:01:17.054Z,23.37
2019-03-24T23:03:46.553Z,23.47
2019-03-24T23:06:16.045Z,24.60
2019-03-24T23:08:45.500Z,28.80
2019-03-24T23:11:15.060Z,24.90
2019-03-24T23:13:44.558Z,27.93
2019-03-24T23:16:14.110Z,23.47
2019-03-24T23:18:43.671Z,23.33
2019-03-24T23:21:13.152Z,25.30
2019-03-24T23:23:42.608Z,24.10
2019-03-24T23:26:12.091Z,27.70
2019-03-24T23:28:41.646Z,26.53
2019-03-24T23:31:11.213Z,28.47
2019-03-24T23:33:40.681Z,29.33
2019-03-24T23:36:10.238Z,26.47
2019-03-24T23:38:39.692Z,26.53
2019-03-24T23:41:09.624Z,24.50
2019-03-24T23:43:39.076Z,24.70
2019-03-24T23:46:08.569Z,28.10
2019-03-24T23:48:38.044Z,24.60
2019-03-24T23:51:26.843Z,24.60
2019-03-24T23:53:56.328Z,26.97
2019-03-24T23:56:25.786Z,27.03
2019-03-24T23:58:55.283Z,29.07
